Time;durP1;ratioP1;P1;durP2;ratioP2;P2;SDS_P1;SDS_P2;PMS_P1;PMS_P2;Temp;Humidity;BMP_temperature;BMP_pressure;BME280_temperature;BME280_humidity;BME280_pressure;Samples;Min_cycle;Max_cycle;Signal;HPM_P1;HPM_P2
2022/07/10 00:00:12;;;;;;;4.60;2.97;;;;;;;20.25;91.57;100741.94;5032830;28;20465;-64
2022/07/10 00:02:38;;;;;;;5.63;2.92;;;;;;;20.24;91.07;100749.19;5032737;28;20453;-64
2022/07/10 00:05:05;;;;;;;4.95;3.50;;;;;;;20.19;90.68;100739.63;5031026;28;20270;-64
2022/07/10 00:07:30;;;;;;;5.68;3.20;;;;;;;20.28;90.57;100753.44;5030709;28;20052;-64
2022/07/10 00:09:56;;;;;;;5.05;2.95;;;;;;;20.31;90.67;100753.25;5030521;28;20029;-64
2022/07/10 00:12:22;;;;;;;6.30;3.13;;;;;;;20.33;90.67;100747.78;5030861;28;20485;-64
2022/07/10 00:14:47;;;;;;;5.80;2.92;;;;;;;20.36;91.01;100751.13;5029891;28;20555;-64
2022/07/10 00:17:12;;;;;;;4.13;2.80;;;;;;;20.36;91.22;100751.13;5044832;28;20036;-64
2022/07/10 00:19:38;;;;;;;5.35;3.17;;;;;;;20.39;91.15;100745.56;5049991;28;20049;-64
2022/07/10 00:22:04;;;;;;;4.95;2.67;;;;;;;20.41;91.49;100735.50;5050999;28;20083;-64
2022/07/10 00:24:29;;;;;;;3.65;3.03;;;;;;;20.48;91.36;100744.97;5050286;28;20040;-64
2022/07/10 00:26:55;;;;;;;4.40;3.08;;;;;;;20.49;90.36;100749.41;5049053;28;20052;-64
2022/07/10 00:29:20;;;;;;;5.38;3.08;;;;;;;20.54;90.86;100750.00;5050218;28;20029;-64
2022/07/10 00:31:46;;;;;;;4.70;3.00;;;;;;;20.61;90.68;100739.69;5050660;28;20028;-64
2022/07/10 00:34:12;;;;;;;4.97;3.17;;;;;;;20.64;90.24;100740.34;5051435;28;20025;-65
2022/07/10 00:36:38;;;;;;;5.43;2.90;;;;;;;20.67;90.12;100729.34;5050993;28;20392;-64
2022/07/10 00:39:04;;;;;;;5.65;3.08;;;;;;;20.61;89.79;100721.63;5050713;28;20033;-65
2022/07/10 00:41:29;;;;;;;4.38;2.80;;;;;;;20.63;90.40;100726.94;5051542;28;20033;-65
2022/07/10 00:44:00;;;;;;;4.68;3.08;;;;;;;20.51;90.69;100723.16;5051971;28;20064;-65
2022/07/10 00:46:27;;;;;;;5.85;3.17;;;;;;;20.51;90.60;100723.16;5050885;28;20329;-65
2022/07/10 00:48:53;;;;;;;4.60;3.22;;;;;;;20.44;91.06;100729.06;5051521;28;20130;-65
2022/07/10 00:51:23;;;;;;;4.57;3.10;;;;;;;20.36;91.07;100725.97;5051890;28;20154;-65
2022/07/10 00:53:49;;;;;;;6.15;3.20;;;;;;;20.26;91.33;100717.53;5051649;28;20500;-65
2022/07/10 00:56:21;;;;;;;5.10;2.95;;;;;;;20.16;92.06;100727.19;5051503;28;20110;-66
2022/07/10 00:58:47;;;;;;;6.97;3.00;;;;;;;20.13;92.78;100726.47;5051612;28;20055;-65
2022/07/10 01:01:14;;;;;;;5.28;3.25;;;;;;;20.08;92.54;100729.41;5051758;28;20037;-65
2022/07/10 01:03:39;;;;;;;5.15;3.20;;;;;;;20.01;93.46;100727.19;5051252;28;20037;-65
2022/07/10 01:06:05;;;;;;;4.65;3.20;;;;;;;19.97;93.44;100731.91;5050785;28;20029;-65
2022/07/10 01:08:31;;;;;;;4.47;3.22;;;;;;;19.93;93.92;100727.66;5042492;28;20034;-65
2022/07/10 01:10:57;;;;;;;4.80;3.28;;;;;;;19.90;94.58;100733.22;5031534;28;20021;-65
2022/07/10 01:13:22;;;;;;;5.45;3.20;;;;;;;19.91;94.54;100726.88;5033130;28;20484;-65
2022/07/10 01:15:48;;;;;;;5.72;3.33;;;;;;;19.98;94.51;100735.47;5042050;28;20147;-65
2022/07/10 01:18:14;;;;;;;4.75;3.20;;;;;;;19.98;94.55;100741.75;5050979;28;20416;-65
2022/07/10 01:20:40;;;;;;;4.88;3.40;;;;;;;20.01;94.05;100738.88;5051155;28;20078;-65
2022/07/10 01:23:05;;;;;;;5.18;3.75;;;;;;;20.04;94.35;100733.28;5050315;28;20032;-65
2022/07/10 01:25:30;;;;;;;5.47;3.55;;;;;;;20.10;93.77;100732.06;5051209;28;20109;-65
2022/07/10 01:27:56;;;;;;;4.85;3.30;;;;;;;20.15;93.65;100732.66;5051008;28;20063;-65
2022/07/10 01:30:21;;;;;;;7.60;3.30;;;;;;;20.17;94.03;100734.31;5051298;28;20508;-65
2022/07/10 01:32:47;;;;;;;4.82;3.55;;;;;;;20.21;93.50;100732.31;5037515;28;20017;-65
2022/07/10 01:35:13;;;;;;;4.80;3.55;;;;;;;20.25;93.01;100737.41;5048026;28;20025;-65
2022/07/10 01:37:40;;;;;;;6.07;3.00;;;;;;;20.30;92.92;100740.72;5051010;28;20120;-66
2022/07/10 01:40:07;;;;;;;5.38;3.28;;;;;;;20.29;93.00;100733.56;5050409;28;20037;-65
2022/07/10 01:42:32;;;;;;;5.80;3.65;;;;;;;20.33;92.76;100745.91;5034880;28;20120;-65
2022/07/10 01:44:57;;;;;;;5.18;3.45;;;;;;;20.36;92.73;100744.88;5029281;28;20028;-65
2022/07/10 01:47:24;;;;;;;6.35;3.63;;;;;;;20.35;90.17;100746.69;5045336;28;20055;-65
2022/07/10 01:49:51;;;;;;;9.05;5.45;;;;;;;20.37;89.69;100741.19;5049075;28;20017;-65
2022/07/10 01:52:16;;;;;;;5.20;3.55;;;;;;;20.37;88.26;100752.88;5048095;28;20017;-65
2022/07/10 01:54:42;;;;;;;6.13;4.47;;;;;;;20.38;88.08;100753.75;5048993;28;20463;-65
2022/07/10 01:57:07;;;;;;;5.10;3.17;;;;;;;20.37;84.81;100750.19;5045845;28;20025;-65
2022/07/10 01:59:32;;;;;;;5.35;3.17;;;;;;;20.37;83.75;100750.19;5049595;28;20055;-65
2022/07/10 02:01:58;;;;;;;6.13;3.80;;;;;;;20.40;83.89;100750.00;5050047;28;20323;-65
2022/07/10 02:04:41;;;;;;;4.68;3.00;;;;;;;20.39;83.36;100750.97;5050547;28;20071;-65
2022/07/10 02:07:14;;;;;;;3.45;2.30;;;;;;;20.38;81.23;100757.31;5050901;28;20017;-65
2022/07/10 02:09:40;;;;;;;6.37;2.40;;;;;;;20.39;79.50;100764.47;5050924;28;20095;-64
2022/07/10 02:12:10;;;;;;;4.60;2.30;;;;;;;20.35;79.30;100748.53;5050535;28;20251;-66
2022/07/10 02:14:36;;;;;;;4.38;2.40;;;;;;;20.36;77.93;100759.25;5050162;28;20029;-65
2022/07/10 02:17:03;;;;;;;3.95;2.20;;;;;;;20.39;77.70;100769.00;5049861;28;20385;-65
2022/07/10 02:19:28;;;;;;;3.33;2.15;;;;;;;20.41;77.67;100764.38;5049558;28;20053;-65
2022/07/10 02:21:54;;;;;;;4.60;2.00;;;;;;;20.44;77.93;100765.06;5049021;28;20094;-65
2022/07/10 02:24:19;;;;;;;4.00;2.05;;;;;;;20.43;76.10;100768.72;5049204;28;20056;-65
2022/07/10 02:26:44;;;;;;;3.20;2.17;;;;;;;20.41;75.52;100770.63;5049057;28;20025;-65
2022/07/10 02:29:10;;;;;;;4.40;2.00;;;;;;;20.37;75.87;100769.09;5048879;28;20353;-65
2022/07/10 02:31:40;;;;;;;3.85;2.25;;;;;;;20.24;75.33;100762.72;5050084;28;20183;-65
2022/07/10 02:34:07;;;;;;;4.40;2.22;;;;;;;20.20;74.86;100771.94;5049833;28;20361;-65
2022/07/10 02:36:33;;;;;;;2.75;1.77;;;;;;;20.16;75.86;100778.50;5050387;28;20021;-65
2022/07/10 02:38:58;;;;;;;4.15;2.03;;;;;;;20.06;75.12;100773.69;5050364;28;20387;-65
2022/07/10 02:41:24;;;;;;;5.35;2.25;;;;;;;20.05;75.62;100780.94;5050477;28;20437;-65
2022/07/10 02:43:49;;;;;;;3.47;2.15;;;;;;;20.03;75.43;100785.53;5049964;28;20029;-65
2022/07/10 02:46:15;;;;;;;5.80;2.10;;;;;;;20.04;75.76;100783.72;5050014;28;20037;-65
2022/07/10 02:48:40;;;;;;;3.30;2.20;;;;;;;19.96;76.41;100778.78;5050320;28;20476;-65
2022/07/10 02:51:05;;;;;;;3.08;2.00;;;;;;;19.92;75.73;100769.09;5049523;28;20029;-65
2022/07/10 02:53:31;;;;;;;3.35;1.77;;;;;;;19.88;76.09;100767.56;5050157;28;20040;-65
2022/07/10 02:55:57;;;;;;;4.28;2.30;;;;;;;19.77;75.89;100771.84;5050097;28;20032;-65
2022/07/10 02:58:22;;;;;;;4.70;1.98;;;;;;;19.66;75.88;100772.47;5050124;28;20106;-65
2022/07/10 03:00:47;;;;;;;5.75;2.65;;;;;;;19.52;76.59;100770.53;5050117;28;20477;-65
2022/07/10 03:03:13;;;;;;;4.78;1.90;;;;;;;19.44;76.72;100763.84;5050638;28;20025;-65
2022/07/10 03:05:39;;;;;;;3.22;2.05;;;;;;;19.46;77.74;100775.44;5052291;28;20035;-65
2022/07/10 03:08:04;;;;;;;4.03;1.65;;;;;;;19.35;76.42;100770.66;5035325;28;20025;-65
2022/07/10 03:10:30;;;;;;;6.88;2.08;;;;;;;19.31;76.82;100773.59;5033531;28;20029;-65
2022/07/10 03:12:55;;;;;;;5.35;2.42;;;;;;;19.23;77.25;100775.81;5034120;28;20453;-65
2022/07/10 03:15:20;;;;;;;4.28;2.10;;;;;;;19.13;77.75;100772.78;5033577;28;20029;-65
2022/07/10 03:17:46;;;;;;;4.15;1.52;;;;;;;19.10;78.09;100772.06;5053105;28;20598;-65
2022/07/10 03:20:12;;;;;;;2.60;1.75;;;;;;;19.09;78.29;100781.13;5035580;28;20431;-65
2022/07/10 03:22:38;;;;;;;5.72;1.75;;;;;;;19.07;78.18;100780.34;5053607;28;20115;-65
2022/07/10 03:25:04;;;;;;;4.15;1.90;;;;;;;19.00;79.53;100782.50;5052788;28;20024;-65
2022/07/10 03:27:30;;;;;;;4.40;1.80;;;;;;;18.95;79.09;100787.25;5052226;28;20031;-65
2022/07/10 03:29:55;;;;;;;2.50;1.60;;;;;;;18.92;79.20;100783.88;5052696;28;20024;-65
2022/07/10 03:32:21;;;;;;;3.03;1.45;;;;;;;18.88;79.06;100790.41;5053477;28;20451;-65
2022/07/10 03:34:46;;;;;;;3.83;1.58;;;;;;;18.90;79.44;100796.53;5053259;28;20021;-65
2022/07/10 03:37:11;;;;;;;2.35;1.40;;;;;;;18.82;79.32;100796.09;5051831;28;20078;-65
2022/07/10 03:39:37;;;;;;;3.88;2.03;;;;;;;18.79;79.87;100796.25;5035397;28;20030;-65
2022/07/10 03:42:02;;;;;;;2.95;1.70;;;;;;;18.79;79.66;100797.16;5035006;28;20440;-65
2022/07/10 03:44:28;;;;;;;4.18;1.80;;;;;;;18.75;79.58;100789.28;5032891;28;20029;-65
2022/07/10 03:46:53;;;;;;;6.45;1.80;;;;;;;18.73;80.51;100802.00;5044969;28;20116;-65
2022/07/10 03:49:19;;;;;;;4.47;1.85;;;;;;;18.65;80.29;100798.84;5052886;28;20101;-65
2022/07/10 03:51:44;;;;;;;2.80;1.70;;;;;;;18.63;80.40;100789.97;5053125;28;20111;-65
2022/07/10 03:54:10;;;;;;;4.18;1.88;;;;;;;18.57;80.87;100793.84;5052917;28;20554;-65
2022/07/10 03:59:19;;;;;;;4.20;1.83;;;;;;;18.51;81.18;100785.22;5052684;28;20094;-65
2022/07/10 04:01:44;;;;;;;3.30;1.75;;;;;;;18.51;81.16;100785.22;5052121;28;20396;-65
2022/07/10 04:04:10;;;;;;;5.15;1.67;;;;;;;18.44;81.00;100790.06;5046623;28;20025;-65
2022/07/10 04:06:38;;;;;;;3.47;1.80;;;;;;;18.49;81.30;100795.19;5032760;28;20026;-65
2022/07/10 04:09:04;;;;;;;3.83;1.80;;;;;;;18.44;81.37;100799.94;5032791;28;20025;-65
2022/07/10 04:11:30;;;;;;;3.95;1.98;;;;;;;18.44;81.01;100794.56;5032527;28;20060;-65
2022/07/10 04:13:55;;;;;;;2.50;1.60;;;;;;;18.41;80.99;100797.41;5032650;28;20105;-65
2022/07/10 04:16:21;;;;;;;3.88;1.70;;;;;;;18.36;81.63;100790.44;5038840;28;20036;-65
2022/07/10 04:18:47;;;;;;;5.78;1.70;;;;;;;18.40;81.39;100798.38;5050409;28;20094;-65
2022/07/10 04:21:12;;;;;;;3.95;1.30;;;;;;;18.40;81.41;100793.88;5050220;28;20388;-65
2022/07/10 04:23:37;;;;;;;2.53;1.70;;;;;;;18.44;82.61;100802.63;5050605;28;20028;-65
2022/07/10 04:26:03;;;;;;;3.25;1.50;;;;;;;18.42;81.96;100804.56;5050480;28;20190;-65
2022/07/10 04:28:28;;;;;;;3.88;1.65;;;;;;;18.37;81.53;100804.75;5050755;28;20029;-65
2022/07/10 04:30:54;;;;;;;4.28;1.83;;;;;;;18.45;81.93;100807.09;5050992;28;20033;-65
2022/07/10 04:33:19;;;;;;;3.35;1.70;;;;;;;18.45;81.11;100790.94;5052368;28;20100;-65
2022/07/10 04:35:45;;;;;;;2.85;1.55;;;;;;;18.61;80.47;100794.56;5051904;28;20433;-65
2022/07/10 04:38:10;;;;;;;3.97;1.60;;;;;;;18.67;80.39;100803.19;5051982;28;20021;-65
2022/07/10 04:40:35;;;;;;;3.40;1.33;;;;;;;18.64;79.52;100802.47;5051158;28;20037;-65
2022/07/10 04:43:01;;;;;;;4.30;1.70;;;;;;;18.64;79.46;100803.34;5051864;28;20029;-66
2022/07/10 04:45:26;;;;;;;3.88;1.75;;;;;;;18.61;79.35;100797.25;5052073;28;20091;-66
2022/07/10 04:47:52;;;;;;;6.13;1.40;;;;;;;18.60;79.39;100800.91;5052071;28;20032;-66
2022/07/10 04:50:17;;;;;;;3.67;1.70;;;;;;;18.59;79.37;100807.22;5052135;28;20025;-66
2022/07/10 04:52:43;;;;;;;2.88;1.58;;;;;;;18.56;79.15;100800.19;5051070;28;20077;-66
2022/07/10 04:55:08;;;;;;;4.90;1.30;;;;;;;18.63;79.13;100801.63;5048411;28;20033;-66
2022/07/10 04:57:34;;;;;;;2.17;1.30;;;;;;;18.71;80.01;100809.28;5048201;28;20017;-66
2022/07/10 04:59:59;;;;;;;7.78;1.98;;;;;;;18.71;79.90;100804.78;5048467;28;20029;-66
2022/07/10 05:02:25;;;;;;;3.90;1.73;;;;;;;18.73;78.98;100802.00;5048152;28;20048;-66
2022/07/10 05:04:50;;;;;;;4.18;1.20;;;;;;;18.79;78.60;100804.34;5048308;28;20150;-67
2022/07/10 05:07:16;;;;;;;2.97;1.25;;;;;;;18.85;78.06;100801.31;5047515;28;20028;-67
2022/07/10 05:09:41;;;;;;;4.40;2.45;;;;;;;18.93;77.72;100809.88;5031242;28;20036;-67
2022/07/10 05:12:07;;;;;;;5.78;1.75;;;;;;;19.06;76.52;100816.34;5031072;28;20036;-67
2022/07/10 05:14:33;;;;;;;5.40;1.73;;;;;;;19.16;75.69;100812.19;5030660;28;20029;-67
2022/07/10 05:16:58;;;;;;;5.40;1.73;;;;;;;19.23;75.52;100817.16;5044459;28;20054;-67
2022/07/10 05:19:23;;;;;;;5.30;1.52;;;;;;;19.25;75.16;100825.16;5051314;28;20604;-67
2022/07/10 05:21:49;;;;;;;5.20;1.95;;;;;;;19.33;74.50;100820.25;5051187;28;20025;-67
2022/07/10 05:24:17;;;;;;;3.28;1.33;;;;;;;19.34;73.30;100830.94;5050990;28;20025;-67
2022/07/10 05:26:43;;;;;;;2.53;1.35;;;;;;;19.34;73.21;100830.94;5050915;28;20017;-67
2022/07/10 05:29:08;;;;;;;3.95;1.30;;;;;;;19.37;73.01;100822.69;5050588;28;20025;-67
2022/07/10 05:31:34;;;;;;;3.90;1.60;;;;;;;19.24;72.49;100826.13;5050535;28;20036;-67
2022/07/10 05:33:59;;;;;;;5.10;2.15;;;;;;;19.25;73.51;100827.88;5050450;28;20455;-67
2022/07/10 05:36:25;;;;;;;3.67;1.35;;;;;;;19.30;73.52;100826.69;5050022;28;20101;-67
2022/07/10 05:38:50;;;;;;;3.20;1.40;;;;;;;19.37;73.63;100832.63;5033196;28;20603;-67
2022/07/10 05:41:16;;;;;;;2.45;1.25;;;;;;;19.32;73.28;100834.72;5031045;28;20060;-67
2022/07/10 05:43:41;;;;;;;2.75;1.20;;;;;;;19.20;72.85;100821.84;5030868;28;20419;-67
2022/07/10 05:46:07;;;;;;;2.08;1.08;;;;;;;19.13;73.43;100828.53;5036714;28;20391;-67
2022/07/10 05:48:32;;;;;;;4.50;1.50;;;;;;;19.26;73.33;100832.28;5036556;28;20652;-65
2022/07/10 05:50:58;;;;;;;1.88;1.38;;;;;;;19.30;72.24;100825.81;5030053;28;20100;-65
2022/07/10 05:53:23;;;;;;;2.25;1.20;;;;;;;19.40;72.46;100833.34;5030910;28;20017;-65
2022/07/10 05:55:49;;;;;;;3.38;1.20;;;;;;;19.49;71.81;100826.53;5030729;28;20060;-65
2022/07/10 05:58:15;;;;;;;3.45;1.30;;;;;;;19.54;71.24;100832.53;5030979;28;20568;-66
2022/07/10 06:00:43;;;;;;;3.08;1.30;;;;;;;19.70;71.87;100838.81;5030787;28;20025;-66
2022/07/10 06:03:09;;;;;;;2.78;1.60;;;;;;;19.82;71.11;100840.81;5030820;28;20030;-66
2022/07/10 06:05:35;;;;;;;2.95;1.35;;;;;;;19.97;69.98;100837.22;5032483;28;20045;-66
2022/07/10 06:08:00;;;;;;;2.13;0.93;;;;;;;19.90;69.71;100838.53;5030581;28;20425;-66
2022/07/10 06:10:25;;;;;;;3.50;1.10;;;;;;;19.92;69.84;100847.41;5030207;28;20026;-66
2022/07/10 06:12:51;;;;;;;4.82;1.58;;;;;;;20.04;70.42;100851.25;5030877;28;20075;-67
2022/07/10 06:15:16;;;;;;;2.08;1.08;;;;;;;20.00;68.57;100845.16;5030676;28;20485;-67
2022/07/10 06:17:42;;;;;;;1.83;0.95;;;;;;;20.14;70.42;100847.94;5049604;28;20036;-66
2022/07/10 06:20:08;;;;;;;1.95;1.08;;;;;;;20.33;69.23;100859.41;5050691;28;20025;-66
2022/07/10 06:22:33;;;;;;;2.95;1.25;;;;;;;20.38;68.11;100862.72;5049596;28;20024;-66
2022/07/10 06:25:04;;;;;;;4.35;1.27;;;;;;;20.34;66.81;100873.81;5050868;28;20082;-66
2022/07/10 06:27:31;;;;;;;4.82;1.92;;;;;;;20.33;67.95;100864.81;5049946;28;20032;-66
2022/07/10 06:29:57;;;;;;;3.22;1.42;;;;;;;20.33;67.43;100870.22;5050657;28;20495;-66
2022/07/10 06:32:24;;;;;;;3.10;1.50;;;;;;;20.47;67.32;100869.41;5050179;28;20495;-66
2022/07/10 06:34:50;;;;;;;4.38;1.35;;;;;;;20.53;66.28;100872.63;5050234;28;20033;-66
2022/07/10 06:37:15;;;;;;;4.10;1.48;;;;;;;20.66;66.18;100868.22;5050185;28;20064;-66
2022/07/10 06:39:41;;;;;;;3.25;1.30;;;;;;;20.81;65.26;100871.81;5053522;28;20021;-66
2022/07/10 06:42:07;;;;;;;3.22;1.33;;;;;;;21.14;64.94;100867.06;5053310;28;20029;-65
2022/07/10 06:44:33;;;;;;;3.10;1.10;;;;;;;21.39;61.91;100874.50;5053690;28;20384;-65
2022/07/10 06:49:44;;;;;;;3.97;1.38;;;;;;;21.81;61.67;100877.22;5054151;28;20122;-65
2022/07/10 06:52:11;;;;;;;3.25;1.10;;;;;;;21.78;63.17;100888.22;5054090;28;20013;-65
2022/07/10 06:54:36;;;;;;;3.20;1.35;;;;;;;21.93;61.80;100881.81;5054204;28;20103;-65
2022/07/10 06:57:02;;;;;;;4.82;1.75;;;;;;;22.05;61.29;100867.47;5054081;28;20112;-66
2022/07/10 06:59:28;;;;;;;3.22;1.30;;;;;;;22.23;60.66;100874.38;5053374;28;20091;-66
2022/07/10 07:01:53;;;;;;;2.88;1.27;;;;;;;22.28;57.94;100877.66;5052955;28;20112;-66
2022/07/10 07:04:19;;;;;;;6.25;1.40;;;;;;;22.17;59.69;100867.50;5046218;28;20033;-66
2022/07/10 07:06:44;;;;;;;5.43;1.98;;;;;;;22.01;59.61;100868.63;5033906;28;20029;-65
2022/07/10 07:09:09;;;;;;;3.78;1.30;;;;;;;22.22;59.37;100878.06;5034017;28;20476;-65
2022/07/10 07:11:35;;;;;;;3.13;1.25;;;;;;;22.56;58.71;100882.97;5033838;28;20025;-65
2022/07/10 07:14:00;;;;;;;5.00;1.10;;;;;;;22.65;60.13;100882.34;5033703;28;20026;-64
2022/07/10 07:16:38;;;;;;;5.07;1.20;;;;;;;22.77;57.79;100880.63;5041926;28;20028;-66
2022/07/10 07:19:05;;;;;;;3.30;1.40;;;;;;;23.07;59.84;100878.50;5052770;28;20047;-65
2022/07/10 07:24:15;;;;;;;2.30;1.25;;;;;;;23.82;55.12;100880.31;5053540;28;20059;-64
2022/07/10 07:26:40;;;;;;;2.22;1.10;;;;;;;23.73;55.16;100880.97;5053026;28;20025;-65
2022/07/10 07:29:06;;;;;;;2.28;1.05;;;;;;;23.33;54.40;100870.28;5053172;28;20020;-65
2022/07/10 07:31:31;;;;;;;3.85;1.17;;;;;;;23.37;53.66;100890.81;5053252;28;20029;-65
2022/07/10 07:33:57;;;;;;;2.28;1.10;;;;;;;23.14;55.61;100879.81;5052836;28;20484;-65
2022/07/10 07:36:23;;;;;;;3.15;1.02;;;;;;;22.86;56.96;100891.75;5048417;28;20025;-65
2022/07/10 07:38:48;;;;;;;2.35;1.20;;;;;;;22.72;56.59;100882.78;5033087;28;20028;-65
2022/07/10 07:41:15;;;;;;;2.28;1.02;;;;;;;22.74;55.50;100881.72;5032912;28;20034;-65
2022/07/10 07:43:40;;;;;;;2.08;1.08;;;;;;;22.93;56.74;100881.31;5033089;28;20071;-65
2022/07/10 07:46:06;;;;;;;5.80;1.23;;;;;;;23.23;55.24;100882.75;5039202;28;20028;-65
2022/07/10 07:48:31;;;;;;;3.70;1.45;;;;;;;23.46;53.24;100875.69;5053271;28;20465;-65
2022/07/10 07:50:57;;;;;;;4.30;1.25;;;;;;;23.64;53.18;100889.81;5052828;28;20071;-65
2022/07/10 07:53:22;;;;;;;3.45;0.80;;;;;;;24.16;52.73;100883.16;5052326;28;20028;-65
2022/07/10 07:55:48;;;;;;;4.68;1.40;;;;;;;24.15;50.35;100884.13;5052364;28;20392;-65
2022/07/10 07:58:13;;;;;;;2.40;0.80;;;;;;;23.90;51.44;100883.34;5035414;28;20064;-65
2022/07/10 08:00:39;;;;;;;2.45;0.98;;;;;;;23.24;53.05;100880.91;5032585;28;20030;-65
2022/07/10 08:03:04;;;;;;;4.07;1.23;;;;;;;22.93;52.58;100879.47;5035275;28;20116;-65
2022/07/10 08:05:30;;;;;;;2.88;1.00;;;;;;;22.96;51.59;100881.09;5033204;28;20488;-65
2022/07/10 08:07:58;;;;;;;4.35;1.27;;;;;;;23.43;52.32;100879.50;5032597;28;20021;-65
2022/07/10 08:10:26;;;;;;;3.88;1.33;;;;;;;23.69;49.54;100882.19;5032471;28;20037;-65
2022/07/10 08:12:52;;;;;;;3.70;1.20;;;;;;;23.54;51.02;100877.88;5030576;28;20021;-65
2022/07/10 08:15:21;;;;;;;2.38;0.90;;;;;;;23.50;51.16;100879.06;5031105;28;20025;-65
2022/07/10 08:17:48;;;;;;;3.45;1.20;;;;;;;23.43;51.92;100873.19;5050809;28;20053;-65
2022/07/10 08:20:14;;;;;;;3.42;1.20;;;;;;;23.64;52.77;100879.78;5051789;28;20093;-65
2022/07/10 08:22:41;;;;;;;2.80;1.15;;;;;;;23.49;51.18;100877.34;5052086;28;20073;-65
2022/07/10 08:25:07;;;;;;;4.85;1.30;;;;;;;23.34;50.23;100872.00;5052779;28;20049;-65
2022/07/10 08:27:34;;;;;;;2.78;1.33;;;;;;;23.55;50.68;100880.47;5051981;28;20174;-65
2022/07/10 08:30:00;;;;;;;2.72;1.20;;;;;;;23.92;48.78;100890.38;5052619;28;20112;-65
2022/07/10 08:32:27;;;;;;;2.40;0.90;;;;;;;23.79;48.89;100881.38;5051697;28;20100;-65
2022/07/10 08:34:52;;;;;;;1.90;1.02;;;;;;;23.66;49.28;100882.44;5051900;28;20025;-65
2022/07/10 08:37:19;;;;;;;2.00;0.98;;;;;;;23.64;50.25;100889.81;5051702;28;20082;-65
2022/07/10 08:39:45;;;;;;;4.22;1.10;;;;;;;23.88;49.62;100882.56;5051869;28;20230;-65
2022/07/10 08:42:11;;;;;;;4.97;1.50;;;;;;;24.26;49.40;100883.34;5051987;28;20051;-65
2022/07/10 08:44:37;;;;;;;3.05;1.10;;;;;;;24.53;48.32;100886.66;5033967;28;20028;-65
2022/07/10 08:47:03;;;;;;;6.60;1.00;;;;;;;24.75;46.58;100870.47;5051924;28;20025;-65
2022/07/10 08:49:30;;;;;;;6.55;1.15;;;;;;;25.28;46.46;100869.84;5051918;28;20028;-65
2022/07/10 08:52:06;;;;;;;2.88;0.95;;;;;;;25.56;43.33;100863.97;5051033;28;20029;-65
2022/07/10 08:54:32;;;;;;;1.58;0.77;;;;;;;26.15;43.81;100869.09;5051032;28;20108;-65
2022/07/10 08:57:00;;;;;;;2.15;0.73;;;;;;;26.51;43.95;100868.72;5050423;28;20025;-65
2022/07/10 08:59:27;;;;;;;6.55;1.40;;;;;;;26.78;42.17;100861.81;5050381;28;20036;-65
2022/07/10 09:01:56;;;;;;;2.15;0.70;;;;;;;27.04;41.89;100867.72;5049760;28;20480;-65
2022/07/10 09:04:23;;;;;;;1.17;0.70;;;;;;;27.21;41.25;100869.88;5049623;28;20029;-65
2022/07/10 09:06:51;;;;;;;4.60;0.82;;;;;;;27.12;41.49;100866.06;5040411;28;20032;-65
2022/07/10 09:09:17;;;;;;;1.40;0.80;;;;;;;27.31;41.30;100861.75;5029634;28;20029;-65
2022/07/10 09:11:42;;;;;;;2.15;0.70;;;;;;;27.39;40.77;100864.66;5030110;28;20394;-65
2022/07/10 09:14:14;;;;;;;4.13;0.85;;;;;;;27.22;40.29;100866.13;5030319;28;20022;-65
2022/07/10 09:16:42;;;;;;;1.55;0.68;;;;;;;26.79;41.08;100884.50;5040357;28;20395;-65
2022/07/10 09:19:24;;;;;;;5.70;1.08;;;;;;;26.85;40.56;100867.63;5051068;28;20052;-65
2022/07/10 09:21:54;;;;;;;3.45;1.10;;;;;;;26.97;40.72;100866.53;5050919;28;20017;-65
2022/07/10 09:24:21;;;;;;;2.58;0.80;;;;;;;27.08;40.83;100863.75;5051168;28;20025;-65
2022/07/10 09:26:56;;;;;;;5.85;1.40;;;;;;;27.36;41.42;100865.81;5048866;28;20021;-65
2022/07/10 09:29:21;;;;;;;2.92;0.80;;;;;;;27.75;38.63;100875.91;5048398;28;20036;-65
2022/07/10 09:31:54;;;;;;;1.05;0.65;;;;;;;28.07;38.85;100867.56;5047471;28;20028;-65
2022/07/10 09:34:39;;;;;;;1.58;0.70;;;;;;;28.01;38.44;100868.09;5047365;28;20024;-65
2022/07/10 09:37:20;;;;;;;3.25;0.85;;;;;;;27.63;39.76;100867.97;5046815;28;20035;-65
2022/07/10 09:39:59;;;;;;;3.05;0.95;;;;;;;27.84;38.72;100874.22;5048255;28;20021;-65
2022/07/10 09:42:36;;;;;;;2.03;0.70;;;;;;;27.06;38.23;100871.22;5050838;28;20024;-65
2022/07/10 09:45:14;;;;;;;1.25;0.77;;;;;;;27.31;39.07;100869.94;5044236;28;20049;-65
2022/07/10 09:47:41;;;;;;;1.58;0.70;;;;;;;27.39;38.76;100868.28;5047998;28;20036;-65
2022/07/10 09:50:27;;;;;;;1.83;0.70;;;;;;;27.44;37.72;100860.53;5048945;28;20025;-65
2022/07/10 09:53:01;;;;;;;2.95;0.40;;;;;;;28.08;37.12;100861.06;5047078;28;20021;-65
2022/07/10 09:55:29;;;;;;;2.67;0.80;;;;;;;28.72;36.79;100875.13;5029798;28;20021;-65
2022/07/10 09:58:00;;;;;;;1.75;0.60;;;;;;;28.17;37.88;100866.56;5029328;28;20041;-65
2022/07/10 10:00:35;;;;;;;2.75;0.77;;;;;;;28.17;36.76;100868.44;5029708;28;20036;-65
2022/07/10 10:03:03;;;;;;;2.20;0.70;;;;;;;28.10;37.35;100861.78;5029178;28;20310;-66
2022/07/10 10:05:40;;;;;;;3.83;0.77;;;;;;;27.93;37.97;100866.06;5028833;28;20021;-64
2022/07/10 10:08:14;;;;;;;1.85;0.60;;;;;;;27.68;36.63;100869.25;5028917;28;20033;-64
2022/07/10 10:10:50;;;;;;;1.85;0.63;;;;;;;27.20;38.01;100860.78;5032077;28;20074;-64
2022/07/10 10:13:18;;;;;;;4.30;0.77;;;;;;;26.90;39.07;100862.63;5029498;28;20026;-64
2022/07/10 10:15:45;;;;;;;2.47;0.60;;;;;;;27.44;38.10;100854.19;5037472;28;20428;-64
2022/07/10 10:18:12;;;;;;;1.17;0.60;;;;;;;27.73;37.22;100856.03;5054643;28;20067;-65
2022/07/10 10:20:41;;;;;;;1.95;0.50;;;;;;;26.86;36.89;100842.91;5054636;28;20017;-65
2022/07/10 10:23:20;;;;;;;2.63;0.60;;;;;;;26.92;40.44;100836.91;5054046;28;20566;-64
2022/07/10 10:25:46;;;;;;;1.45;0.70;;;;;;;27.37;38.78;100848.41;5054387;28;20037;-64
2022/07/10 10:28:14;;;;;;;3.83;0.80;;;;;;;27.39;37.64;100840.94;5054384;28;20111;-65
2022/07/10 10:30:42;;;;;;;1.58;0.40;;;;;;;27.48;36.99;100840.09;5054762;28;20027;-65
2022/07/10 10:33:32;;;;;;;2.75;0.52;;;;;;;27.16;37.43;100845.69;5053980;28;20028;-66
2022/07/10 10:35:59;;;;;;;2.53;0.50;;;;;;;27.30;38.25;100844.47;5054525;28;20605;-66
2022/07/10 10:38:45;;;;;;;1.48;0.50;;;;;;;27.60;36.51;100841.75;5054594;28;20128;-65
2022/07/10 10:41:22;;;;;;;1.75;0.60;;;;;;;28.14;36.33;100849.53;5053767;28;20049;-65
2022/07/10 10:44:16;;;;;;;1.90;0.47;;;;;;;28.12;34.65;100836.00;5053697;28;20158;-66
2022/07/10 10:46:50;;;;;;;1.52;0.60;;;;;;;28.52;37.18;100844.16;5026213;28;20116;-66
2022/07/10 10:49:17;;;;;;;1.27;0.50;;;;;;;28.18;35.48;100846.41;5053822;28;20040;-67
2022/07/10 10:52:01;;;;;;;0.70;0.30;;;;;;;28.36;34.84;100844.69;5054016;28;20484;-64
2022/07/10 10:54:29;;;;;;;1.17;0.40;;;;;;;28.48;35.66;100843.53;5054186;28;20100;-65
2022/07/10 10:57:14;;;;;;;1.55;0.40;;;;;;;28.88;34.75;100826.13;5053945;28;20112;-65
2022/07/10 10:59:49;;;;;;;4.15;0.50;;;;;;;29.09;34.77;100827.69;5053897;28;20025;-65
2022/07/10 11:02:34;;;;;;;2.42;0.40;;;;;;;29.11;35.20;100830.28;5053389;28;20052;-65
2022/07/10 11:05:18;;;;;;;3.20;0.50;;;;;;;28.80;33.19;100828.72;5053415;28;20147;-65
2022/07/10 11:07:58;;;;;;;2.13;0.45;;;;;;;28.07;34.94;100832.84;5048649;28;20033;-65
2022/07/10 11:10:43;;;;;;;1.88;0.60;;;;;;;27.86;36.38;100834.78;5034077;28;20033;-65
2022/07/10 11:13:08;;;;;;;2.78;0.73;;;;;;;28.01;34.68;100822.47;5034001;28;20049;-65
2022/07/10 11:15:37;;;;;;;3.60;0.90;;;;;;;27.54;36.86;100825.91;5034841;28;20053;-65
2022/07/10 11:18:14;;;;;;;2.33;0.40;;;;;;;28.34;35.90;100830.28;5053835;28;20087;-65
2022/07/10 11:20:46;;;;;;;2.78;0.45;;;;;;;28.94;35.14;100817.31;5052589;28;20036;-65
2022/07/10 11:23:29;;;;;;;2.40;0.68;;;;;;;29.25;34.10;100810.59;5052956;28;20104;-65
2022/07/10 11:26:11;;;;;;;4.60;0.80;;;;;;;29.27;34.40;100820.44;5052773;28;20029;-65
2022/07/10 11:28:52;;;;;;;1.00;0.40;;;;;;;29.12;33.65;100812.81;5035606;28;20124;-65
2022/07/10 11:31:19;;;;;;;1.45;0.43;;;;;;;29.52;33.49;100814.25;5033661;28;20491;-65
2022/07/10 11:33:47;;;;;;;0.98;0.60;;;;;;;29.96;33.64;100803.50;5045337;28;20021;-65